sensor_id;sensor_type;location;lat;lon;timestamp;P1;durP1;ratioP1;P2;durP2;ratioP2
23072;SDS011;67971;51.046;3.732;2023-08-06T00:02:19;23.37;;;11.67;;
23072;SDS011;67971;51.046;3.732;2023-08-06T00:04:45;25.47;;;12.13;;
23072;SDS011;67971;51.046;3.732;2023-08-06T00:07:11;27.03;;;12.53;;
23072;SDS011;67971;51.046;3.732;2023-08-06T00:09:36;27.40;;;12.87;;
23072;SDS011;67971;51.046;3.732;2023-08-06T00:12:02;30.70;;;14.03;;
23072;SDS011;67971;51.046;3.732;2023-08-06T00:14:28;36.13;;;13.13;;
23072;SDS011;67971;51.046;3.732;2023-08-06T00:16:53;30.73;;;13.30;;
23072;SDS011;67971;51.046;3.732;2023-08-06T00:19:19;26.53;;;13.60;;
23072;SDS011;67971;51.046;3.732;2023-08-06T00:21:45;33.00;;;16.80;;
23072;SDS011;67971;51.046;3.732;2023-08-06T00:24:10;33.97;;;15.70;;
23072;SDS011;67971;51.046;3.732;2023-08-06T00:26:36;37.03;;;17.00;;
23072;SDS011;67971;51.046;3.732;2023-08-06T00:29:02;34.73;;;17.53;;
23072;SDS011;67971;51.046;3.732;2023-08-06T00:31:27;43.27;;;18.37;;
23072;SDS011;67971;51.046;3.732;2023-08-06T00:33:53;47.03;;;18.27;;
23072;SDS011;67971;51.046;3.732;2023-08-06T00:36:19;40.47;;;18.03;;
23072;SDS011;67971;51.046;3.732;2023-08-06T00:38:44;38.03;;;18.73;;
23072;SDS011;67971;51.046;3.732;2023-08-06T00:41:10;40.27;;;18.57;;
23072;SDS011;67971;51.046;3.732;2023-08-06T00:43:35;37.17;;;19.42;;
23072;SDS011;67971;51.046;3.732;2023-08-06T00:46:01;36.53;;;18.05;;
23072;SDS011;67971;51.046;3.732;2023-08-06T00:48:27;43.07;;;18.47;;
23072;SDS011;67971;51.046;3.732;2023-08-06T00:50:52;46.17;;;18.40;;
23072;SDS011;67971;51.046;3.732;2023-08-06T00:53:18;34.72;;;16.08;;
23072;SDS011;67971;51.046;3.732;2023-08-06T00:55:44;33.92;;;15.90;;
23072;SDS011;67971;51.046;3.732;2023-08-06T00:58:11;37.45;;;15.93;;
23072;SDS011;67971;51.046;3.732;2023-08-06T01:00:37;29.67;;;14.98;;
23072;SDS011;67971;51.046;3.732;2023-08-06T01:03:03;35.53;;;16.05;;
23072;SDS011;67971;51.046;3.732;2023-08-06T01:05:29;37.78;;;15.25;;
23072;SDS011;67971;51.046;3.732;2023-08-06T01:11:01;37.10;;;15.67;;
23072;SDS011;67971;51.046;3.732;2023-08-06T01:16:09;41.05;;;15.10;;
23072;SDS011;67971;51.046;3.732;2023-08-06T01:18:36;35.03;;;16.50;;
23072;SDS011;67971;51.046;3.732;2023-08-06T01:21:04;31.85;;;14.75;;
23072;SDS011;67971;51.046;3.732;2023-08-06T01:23:29;31.13;;;14.93;;
23072;SDS011;67971;51.046;3.732;2023-08-06T01:28:45;47.70;;;19.83;;
23072;SDS011;67971;51.046;3.732;2023-08-06T01:31:22;40.53;;;17.83;;
23072;SDS011;67971;51.046;3.732;2023-08-06T01:33:52;48.95;;;19.23;;
23072;SDS011;67971;51.046;3.732;2023-08-06T01:36:20;45.55;;;19.50;;
23072;SDS011;67971;51.046;3.732;2023-08-06T01:38:47;44.47;;;20.30;;
23072;SDS011;67971;51.046;3.732;2023-08-06T01:41:13;34.90;;;17.57;;
23072;SDS011;67971;51.046;3.732;2023-08-06T01:43:39;37.43;;;19.37;;
23072;SDS011;67971;51.046;3.732;2023-08-06T01:46:05;43.57;;;21.43;;
23072;SDS011;67971;51.046;3.732;2023-08-06T01:48:30;42.77;;;22.03;;
23072;SDS011;67971;51.046;3.732;2023-08-06T01:50:56;46.23;;;20.60;;
23072;SDS011;67971;51.046;3.732;2023-08-06T01:53:21;39.97;;;18.63;;
23072;SDS011;67971;51.046;3.732;2023-08-06T01:55:50;39.63;;;18.13;;
23072;SDS011;67971;51.046;3.732;2023-08-06T01:58:16;20.33;;;12.10;;
23072;SDS011;67971;51.046;3.732;2023-08-06T02:00:41;25.27;;;13.37;;
23072;SDS011;67971;51.046;3.732;2023-08-06T02:03:07;25.30;;;11.90;;
23072;SDS011;67971;51.046;3.732;2023-08-06T02:05:33;19.87;;;12.20;;
23072;SDS011;67971;51.046;3.732;2023-08-06T02:07:58;15.47;;;10.17;;
23072;SDS011;67971;51.046;3.732;2023-08-06T02:10:24;18.50;;;10.07;;
23072;SDS011;67971;51.046;3.732;2023-08-06T02:12:50;24.33;;;9.50;;
23072;SDS011;67971;51.046;3.732;2023-08-06T02:15:15;15.33;;;7.20;;
23072;SDS011;67971;51.046;3.732;2023-08-06T02:17:41;22.73;;;7.07;;
23072;SDS011;67971;51.046;3.732;2023-08-06T02:20:07;13.27;;;4.83;;
23072;SDS011;67971;51.046;3.732;2023-08-06T02:22:32;11.07;;;4.90;;
23072;SDS011;67971;51.046;3.732;2023-08-06T02:24:58;15.87;;;3.70;;
23072;SDS011;67971;51.046;3.732;2023-08-06T02:27:24;9.07;;;3.20;;
23072;SDS011;67971;51.046;3.732;2023-08-06T02:29:50;10.80;;;3.27;;
23072;SDS011;67971;51.046;3.732;2023-08-06T02:32:15;15.30;;;3.63;;
23072;SDS011;67971;51.046;3.732;2023-08-06T02:34:41;10.73;;;3.67;;
23072;SDS011;67971;51.046;3.732;2023-08-06T02:37:06;9.63;;;3.80;;
23072;SDS011;67971;51.046;3.732;2023-08-06T02:39:32;19.30;;;5.73;;
23072;SDS011;67971;51.046;3.732;2023-08-06T02:41:59;16.73;;;6.30;;
23072;SDS011;67971;51.046;3.732;2023-08-06T02:44:27;13.27;;;6.00;;
23072;SDS011;67971;51.046;3.732;2023-08-06T02:46:53;17.57;;;6.47;;
23072;SDS011;67971;51.046;3.732;2023-08-06T02:49:19;19.37;;;6.47;;
23072;SDS011;67971;51.046;3.732;2023-08-06T02:51:45;10.77;;;4.30;;
23072;SDS011;67971;51.046;3.732;2023-08-06T02:54:11;17.67;;;5.33;;
23072;SDS011;67971;51.046;3.732;2023-08-06T02:56:36;19.60;;;5.67;;
23072;SDS011;67971;51.046;3.732;2023-08-06T02:59:03;20.00;;;6.27;;
23072;SDS011;67971;51.046;3.732;2023-08-06T03:01:29;28.70;;;7.17;;
23072;SDS011;67971;51.046;3.732;2023-08-06T03:03:54;23.63;;;7.10;;
23072;SDS011;67971;51.046;3.732;2023-08-06T03:06:20;18.47;;;7.20;;
23072;SDS011;67971;51.046;3.732;2023-08-06T03:08:46;26.63;;;8.73;;
23072;SDS011;67971;51.046;3.732;2023-08-06T03:11:11;16.90;;;8.00;;
23072;SDS011;67971;51.046;3.732;2023-08-06T03:13:37;24.80;;;7.47;;
23072;SDS011;67971;51.046;3.732;2023-08-06T03:16:03;29.53;;;7.93;;
23072;SDS011;67971;51.046;3.732;2023-08-06T03:18:29;23.33;;;7.90;;
23072;SDS011;67971;51.046;3.732;2023-08-06T03:20:54;18.03;;;7.97;;
23072;SDS011;67971;51.046;3.732;2023-08-06T03:23:20;24.50;;;8.07;;
23072;SDS011;67971;51.046;3.732;2023-08-06T03:25:46;23.93;;;7.90;;
23072;SDS011;67971;51.046;3.732;2023-08-06T03:28:11;27.00;;;8.60;;
23072;SDS011;67971;51.046;3.732;2023-08-06T03:30:38;22.17;;;8.37;;
23072;SDS011;67971;51.046;3.732;2023-08-06T03:33:03;24.37;;;9.20;;
23072;SDS011;67971;51.046;3.732;2023-08-06T03:35:29;22.80;;;8.47;;
23072;SDS011;67971;51.046;3.732;2023-08-06T03:37:55;21.60;;;7.77;;
23072;SDS011;67971;51.046;3.732;2023-08-06T03:40:20;20.50;;;8.03;;
23072;SDS011;67971;51.046;3.732;2023-08-06T03:42:46;14.07;;;6.17;;
23072;SDS011;67971;51.046;3.732;2023-08-06T03:45:12;13.80;;;6.97;;
23072;SDS011;67971;51.046;3.732;2023-08-06T03:47:37;18.63;;;7.13;;
23072;SDS011;67971;51.046;3.732;2023-08-06T03:50:03;19.07;;;7.03;;
23072;SDS011;67971;51.046;3.732;2023-08-06T03:52:29;20.47;;;7.73;;
23072;SDS011;67971;51.046;3.732;2023-08-06T03:54:55;21.00;;;7.83;;
23072;SDS011;67971;51.046;3.732;2023-08-06T03:57:21;26.03;;;9.50;;
23072;SDS011;67971;51.046;3.732;2023-08-06T03:59:46;27.37;;;9.93;;
23072;SDS011;67971;51.046;3.732;2023-08-06T04:02:12;35.57;;;11.33;;
23072;SDS011;67971;51.046;3.732;2023-08-06T04:04:37;33.73;;;10.10;;
23072;SDS011;67971;51.046;3.732;2023-08-06T04:07:03;25.77;;;9.90;;
23072;SDS011;67971;51.046;3.732;2023-08-06T04:09:29;29.43;;;9.33;;
23072;SDS011;67971;51.046;3.732;2023-08-06T04:11:54;22.93;;;8.40;;
23072;SDS011;67971;51.046;3.732;2023-08-06T04:14:20;25.90;;;8.53;;
23072;SDS011;67971;51.046;3.732;2023-08-06T04:16:46;29.83;;;8.57;;
23072;SDS011;67971;51.046;3.732;2023-08-06T04:19:12;25.23;;;7.13;;
23072;SDS011;67971;51.046;3.732;2023-08-06T04:21:37;24.43;;;7.23;;
23072;SDS011;67971;51.046;3.732;2023-08-06T04:24:03;13.53;;;5.90;;
23072;SDS011;67971;51.046;3.732;2023-08-06T04:26:29;24.53;;;6.37;;
23072;SDS011;67971;51.046;3.732;2023-08-06T04:28:54;22.00;;;6.67;;
23072;SDS011;67971;51.046;3.732;2023-08-06T04:31:21;16.23;;;5.13;;
23072;SDS011;67971;51.046;3.732;2023-08-06T04:33:46;22.60;;;5.80;;
23072;SDS011;67971;51.046;3.732;2023-08-06T04:36:12;14.77;;;5.10;;
23072;SDS011;67971;51.046;3.732;2023-08-06T04:38:38;14.83;;;4.60;;
23072;SDS011;67971;51.046;3.732;2023-08-06T04:41:03;12.33;;;5.17;;
23072;SDS011;67971;51.046;3.732;2023-08-06T04:43:29;12.73;;;4.93;;
23072;SDS011;67971;51.046;3.732;2023-08-06T04:45:55;15.00;;;4.33;;
23072;SDS011;67971;51.046;3.732;2023-08-06T04:48:21;12.90;;;3.97;;
23072;SDS011;67971;51.046;3.732;2023-08-06T04:50:48;16.40;;;5.53;;
23072;SDS011;67971;51.046;3.732;2023-08-06T04:53:15;14.10;;;4.77;;
23072;SDS011;67971;51.046;3.732;2023-08-06T04:55:41;16.53;;;4.97;;
23072;SDS011;67971;51.046;3.732;2023-08-06T04:58:08;15.40;;;4.93;;
23072;SDS011;67971;51.046;3.732;2023-08-06T05:00:35;14.87;;;5.17;;
23072;SDS011;67971;51.046;3.732;2023-08-06T05:03:00;15.23;;;4.70;;
23072;SDS011;67971;51.046;3.732;2023-08-06T05:05:27;14.40;;;4.80;;
23072;SDS011;67971;51.046;3.732;2023-08-06T05:07:54;16.30;;;4.30;;
23072;SDS011;67971;51.046;3.732;2023-08-06T05:10:21;14.07;;;5.03;;
23072;SDS011;67971;51.046;3.732;2023-08-06T05:12:49;13.47;;;4.67;;
23072;SDS011;67971;51.046;3.732;2023-08-06T05:15:14;15.67;;;4.97;;
23072;SDS011;67971;51.046;3.732;2023-08-06T05:17:40;14.70;;;4.50;;
23072;SDS011;67971;51.046;3.732;2023-08-06T05:20:06;9.53;;;4.60;;
23072;SDS011;67971;51.046;3.732;2023-08-06T05:22:32;9.73;;;4.30;;
23072;SDS011;67971;51.046;3.732;2023-08-06T05:24:57;15.10;;;5.03;;
23072;SDS011;67971;51.046;3.732;2023-08-06T05:27:23;15.03;;;5.00;;
23072;SDS011;67971;51.046;3.732;2023-08-06T05:29:48;14.53;;;4.87;;
23072;SDS011;67971;51.046;3.732;2023-08-06T05:32:14;15.87;;;4.63;;
23072;SDS011;67971;51.046;3.732;2023-08-06T05:34:40;14.03;;;5.23;;
23072;SDS011;67971;51.046;3.732;2023-08-06T05:37:06;14.57;;;5.90;;
23072;SDS011;67971;51.046;3.732;2023-08-06T05:39:32;16.60;;;5.13;;
23072;SDS011;67971;51.046;3.732;2023-08-06T05:41:58;13.37;;;4.63;;
23072;SDS011;67971;51.046;3.732;2023-08-06T05:44:23;16.17;;;4.47;;
23072;SDS011;67971;51.046;3.732;2023-08-06T05:46:49;17.63;;;4.70;;
23072;SDS011;67971;51.046;3.732;2023-08-06T05:49:15;8.73;;;3.97;;
23072;SDS011;67971;51.046;3.732;2023-08-06T05:51:41;14.17;;;2.93;;
23072;SDS011;67971;51.046;3.732;2023-08-06T05:54:07;10.70;;;3.17;;
23072;SDS011;67971;51.046;3.732;2023-08-06T05:56:33;15.67;;;3.33;;
23072;SDS011;67971;51.046;3.732;2023-08-06T05:58:58;18.83;;;3.27;;
23072;SDS011;67971;51.046;3.732;2023-08-06T06:01:24;18.83;;;3.57;;
23072;SDS011;67971;51.046;3.732;2023-08-06T06:03:49;10.33;;;2.77;;
23072;SDS011;67971;51.046;3.732;2023-08-06T06:06:15;15.97;;;3.03;;
23072;SDS011;67971;51.046;3.732;2023-08-06T06:08:41;8.53;;;2.03;;
23072;SDS011;67971;51.046;3.732;2023-08-06T06:11:07;7.70;;;2.03;;
23072;SDS011;67971;51.046;3.732;2023-08-06T06:13:32;12.17;;;1.80;;
23072;SDS011;67971;51.046;3.732;2023-08-06T06:15:58;11.70;;;2.33;;
23072;SDS011;67971;51.046;3.732;2023-08-06T06:18:24;12.63;;;1.83;;
23072;SDS011;67971;51.046;3.732;2023-08-06T06:20:49;10.60;;;2.03;;
23072;SDS011;67971;51.046;3.732;2023-08-06T06:23:15;11.47;;;2.43;;
23072;SDS011;67971;51.046;3.732;2023-08-06T06:25:48;18.10;;;2.20;;
23072;SDS011;67971;51.046;3.732;2023-08-06T06:28:16;8.77;;;1.57;;
23072;SDS011;67971;51.046;3.732;2023-08-06T06:30:42;19.33;;;2.67;;
23072;SDS011;67971;51.046;3.732;2023-08-06T06:33:08;13.03;;;2.17;;
23072;SDS011;67971;51.046;3.732;2023-08-06T06:35:33;12.43;;;2.00;;
23072;SDS011;67971;51.046;3.732;2023-08-06T06:37:59;11.57;;;2.10;;
23072;SDS011;67971;51.046;3.732;2023-08-06T06:40:25;15.10;;;2.03;;
23072;SDS011;67971;51.046;3.732;2023-08-06T06:42:51;14.03;;;2.07;;
23072;SDS011;67971;51.046;3.732;2023-08-06T06:45:17;14.77;;;2.20;;
23072;SDS011;67971;51.046;3.732;2023-08-06T06:47:42;16.27;;;2.17;;
23072;SDS011;67971;51.046;3.732;2023-08-06T06:50:08;17.77;;;3.57;;
23072;SDS011;67971;51.046;3.732;2023-08-06T06:52:34;19.57;;;2.70;;
23072;SDS011;67971;51.046;3.732;2023-08-06T06:54:59;12.80;;;2.60;;
23072;SDS011;67971;51.046;3.732;2023-08-06T06:57:25;18.40;;;2.57;;
23072;SDS011;67971;51.046;3.732;2023-08-06T06:59:51;14.77;;;2.77;;
23072;SDS011;67971;51.046;3.732;2023-08-06T07:02:17;16.90;;;2.30;;
23072;SDS011;67971;51.046;3.732;2023-08-06T07:04:42;11.47;;;2.17;;
23072;SDS011;67971;51.046;3.732;2023-08-06T07:07:08;12.53;;;2.57;;
23072;SDS011;67971;51.046;3.732;2023-08-06T07:09:33;14.60;;;2.33;;
23072;SDS011;67971;51.046;3.732;2023-08-06T07:11:59;13.90;;;2.50;;
23072;SDS011;67971;51.046;3.732;2023-08-06T07:14:26;9.53;;;2.93;;
23072;SDS011;67971;51.046;3.732;2023-08-06T07:16:53;10.43;;;2.37;;
23072;SDS011;67971;51.046;3.732;2023-08-06T07:19:19;10.87;;;2.80;;
23072;SDS011;67971;51.046;3.732;2023-08-06T07:21:44;10.53;;;2.17;;
23072;SDS011;67971;51.046;3.732;2023-08-06T07:24:10;17.83;;;2.63;;
23072;SDS011;67971;51.046;3.732;2023-08-06T07:26:36;12.07;;;2.23;;
23072;SDS011;67971;51.046;3.732;2023-08-06T07:29:02;15.10;;;2.60;;
23072;SDS011;67971;51.046;3.732;2023-08-06T07:31:28;9.63;;;2.00;;
23072;SDS011;67971;51.046;3.732;2023-08-06T07:33:53;12.27;;;1.80;;
23072;SDS011;67971;51.046;3.732;2023-08-06T07:36:19;10.30;;;2.47;;
23072;SDS011;67971;51.046;3.732;2023-08-06T07:38:45;11.70;;;2.10;;
23072;SDS011;67971;51.046;3.732;2023-08-06T07:41:10;20.07;;;2.90;;
23072;SDS011;67971;51.046;3.732;2023-08-06T07:43:36;14.40;;;2.23;;
23072;SDS011;67971;51.046;3.732;2023-08-06T07:46:02;12.20;;;2.67;;
23072;SDS011;67971;51.046;3.732;2023-08-06T07:48:28;10.67;;;2.17;;
23072;SDS011;67971;51.046;3.732;2023-08-06T07:50:54;12.33;;;2.93;;
23072;SDS011;67971;51.046;3.732;2023-08-06T07:53:21;13.97;;;2.50;;
23072;SDS011;67971;51.046;3.732;2023-08-06T07:55:50;14.00;;;2.50;;
23072;SDS011;67971;51.046;3.732;2023-08-06T07:58:17;10.73;;;2.70;;
23072;SDS011;67971;51.046;3.732;2023-08-06T08:00:43;11.73;;;2.93;;
23072;SDS011;67971;51.046;3.732;2023-08-06T08:03:10;14.17;;;2.83;;
23072;SDS011;67971;51.046;3.732;2023-08-06T08:05:38;16.00;;;2.77;;
23072;SDS011;67971;51.046;3.732;2023-08-06T08:08:04;9.33;;;1.83;;
23072;SDS011;67971;51.046;3.732;2023-08-06T08:10:30;10.97;;;2.07;;
23072;SDS011;67971;51.046;3.732;2023-08-06T08:12:56;17.07;;;3.00;;
23072;SDS011;67971;51.046;3.732;2023-08-06T08:15:22;10.60;;;2.57;;
23072;SDS011;67971;51.046;3.732;2023-08-06T08:17:48;16.90;;;3.67;;
23072;SDS011;67971;51.046;3.732;2023-08-06T08:20:15;9.47;;;2.83;;
23072;SDS011;67971;51.046;3.732;2023-08-06T08:22:41;17.53;;;3.00;;
23072;SDS011;67971;51.046;3.732;2023-08-06T08:25:06;16.90;;;2.53;;
23072;SDS011;67971;51.046;3.732;2023-08-06T08:27:32;14.77;;;2.60;;
23072;SDS011;67971;51.046;3.732;2023-08-06T08:29:58;21.90;;;2.70;;
23072;SDS011;67971;51.046;3.732;2023-08-06T08:32:23;11.23;;;3.20;;
23072;SDS011;67971;51.046;3.732;2023-08-06T08:34:49;10.60;;;2.40;;
23072;SDS011;67971;51.046;3.732;2023-08-06T08:37:15;12.37;;;2.90;;
23072;SDS011;67971;51.046;3.732;2023-08-06T08:39:40;15.10;;;2.97;;
23072;SDS011;67971;51.046;3.732;2023-08-06T08:42:06;15.03;;;2.90;;
23072;SDS011;67971;51.046;3.732;2023-08-06T08:44:32;20.30;;;2.83;;
23072;SDS011;67971;51.046;3.732;2023-08-06T08:46:59;10.87;;;2.37;;
23072;SDS011;67971;51.046;3.732;2023-08-06T08:49:24;19.53;;;3.30;;
23072;SDS011;67971;51.046;3.732;2023-08-06T08:51:51;14.77;;;2.87;;
23072;SDS011;67971;51.046;3.732;2023-08-06T08:54:19;13.07;;;2.60;;
23072;SDS011;67971;51.046;3.732;2023-08-06T08:56:48;14.37;;;2.87;;
23072;SDS011;67971;51.046;3.732;2023-08-06T08:59:13;16.60;;;2.90;;
23072;SDS011;67971;51.046;3.732;2023-08-06T09:01:39;13.97;;;2.67;;
23072;SDS011;67971;51.046;3.732;2023-08-06T09:04:07;13.53;;;2.70;;
23072;SDS011;67971;51.046;3.732;2023-08-06T09:06:35;23.10;;;3.30;;
23072;SDS011;67971;51.046;3.732;2023-08-06T09:09:11;17.83;;;2.73;;
23072;SDS011;67971;51.046;3.732;2023-08-06T09:11:44;8.37;;;2.60;;
23072;SDS011;67971;51.046;3.732;2023-08-06T09:14:13;14.03;;;2.43;;
23072;SDS011;67971;51.046;3.732;2023-08-06T09:16:38;9.83;;;2.60;;
23072;SDS011;67971;51.046;3.732;2023-08-06T09:19:08;11.93;;;2.50;;
23072;SDS011;67971;51.046;3.732;2023-08-06T09:21:43;15.57;;;2.27;;
23072;SDS011;67971;51.046;3.732;2023-08-06T09:24:13;19.63;;;2.10;;
23072;SDS011;67971;51.046;3.732;2023-08-06T09:26:39;19.33;;;2.40;;
23072;SDS011;67971;51.046;3.732;2023-08-06T09:29:06;17.23;;;3.40;;
23072;SDS011;67971;51.046;3.732;2023-08-06T09:34:11;15.73;;;2.60;;
23072;SDS011;67971;51.046;3.732;2023-08-06T09:36:50;11.97;;;2.47;;
23072;SDS011;67971;51.046;3.732;2023-08-06T09:39:19;14.30;;;2.50;;
23072;SDS011;67971;51.046;3.732;2023-08-06T09:41:46;13.47;;;2.47;;
23072;SDS011;67971;51.046;3.732;2023-08-06T09:44:15;13.33;;;2.60;;
23072;SDS011;67971;51.046;3.732;2023-08-06T09:46:43;16.58;;;2.80;;
23072;SDS011;67971;51.046;3.732;2023-08-06T09:49:12;16.17;;;3.25;;
23072;SDS011;67971;51.046;3.732;2023-08-06T09:51:37;15.77;;;2.72;;
23072;SDS011;67971;51.046;3.732;2023-08-06T09:54:04;14.93;;;2.83;;
23072;SDS011;67971;51.046;3.732;2023-08-06T09:56:32;14.55;;;2.60;;
23072;SDS011;67971;51.046;3.732;2023-08-06T09:59:04;15.30;;;2.77;;
23072;SDS011;67971;51.046;3.732;2023-08-06T10:01:32;16.27;;;3.40;;
23072;SDS011;67971;51.046;3.732;2023-08-06T10:04:05;13.63;;;3.07;;
23072;SDS011;67971;51.046;3.732;2023-08-06T10:06:35;13.47;;;3.57;;
23072;SDS011;67971;51.046;3.732;2023-08-06T10:09:02;12.07;;;3.80;;
23072;SDS011;67971;51.046;3.732;2023-08-06T10:11:28;13.77;;;2.73;;
23072;SDS011;67971;51.046;3.732;2023-08-06T10:14:04;14.73;;;2.37;;
23072;SDS011;67971;51.046;3.732;2023-08-06T10:16:35;13.23;;;2.57;;
23072;SDS011;67971;51.046;3.732;2023-08-06T10:19:03;17.60;;;2.88;;
23072;SDS011;67971;51.046;3.732;2023-08-06T10:21:33;6.97;;;2.30;;
23072;SDS011;67971;51.046;3.732;2023-08-06T10:23:59;13.20;;;2.63;;
23072;SDS011;67971;51.046;3.732;2023-08-06T10:26:29;12.73;;;2.70;;
23072;SDS011;67971;51.046;3.732;2023-08-06T10:28:55;7.10;;;2.30;;
23072;SDS011;67971;51.046;3.732;2023-08-06T10:32:07;7.50;;;2.60;;
23072;SDS011;67971;51.046;3.732;2023-08-06T10:34:20;8.03;;;2.23;;
23072;SDS011;67971;51.046;3.732;2023-08-06T10:36:46;9.45;;;2.20;;
23072;SDS011;67971;51.046;3.732;2023-08-06T10:39:15;9.83;;;2.87;;
23072;SDS011;67971;51.046;3.732;2023-08-06T10:41:42;16.30;;;2.80;;
23072;SDS011;67971;51.046;3.732;2023-08-06T10:44:09;14.07;;;2.73;;
23072;SDS011;67971;51.046;3.732;2023-08-06T10:46:37;17.23;;;2.30;;
23072;SDS011;67971;51.046;3.732;2023-08-06T10:49:03;15.30;;;2.70;;
23072;SDS011;67971;51.046;3.732;2023-08-06T10:51:29;12.47;;;2.50;;
23072;SDS011;67971;51.046;3.732;2023-08-06T10:53:55;12.80;;;2.93;;
23072;SDS011;67971;51.046;3.732;2023-08-06T10:56:23;18.70;;;2.93;;
23072;SDS011;67971;51.046;3.732;2023-08-06T10:58:55;8.57;;;2.27;;
23072;SDS011;67971;51.046;3.732;2023-08-06T11:01:22;10.60;;;2.40;;
23072;SDS011;67971;51.046;3.732;2023-08-06T11:03:48;11.57;;;2.40;;
23072;SDS011;67971;51.046;3.732;2023-08-06T11:06:19;11.07;;;3.10;;
23072;SDS011;67971;51.046;3.732;2023-08-06T11:08:52;12.10;;;2.97;;
23072;SDS011;67971;51.046;3.732;2023-08-06T11:11:19;10.73;;;2.33;;
23072;SDS011;67971;51.046;3.732;2023-08-06T11:13:46;13.00;;;2.43;;
23072;SDS011;67971;51.046;3.732;2023-08-06T11:16:17;9.20;;;2.30;;
23072;SDS011;67971;51.046;3.732;2023-08-06T11:18:44;9.90;;;2.60;;
23072;SDS011;67971;51.046;3.732;2023-08-06T11:21:10;7.50;;;2.17;;
23072;SDS011;67971;51.046;3.732;2023-08-06T11:23:38;8.43;;;2.57;;
23072;SDS011;67971;51.046;3.732;2023-08-06T11:26:05;11.53;;;2.70;;
23072;SDS011;67971;51.046;3.732;2023-08-06T11:28:31;11.93;;;2.60;;
23072;SDS011;67971;51.046;3.732;2023-08-06T11:30:57;14.57;;;3.13;;
23072;SDS011;67971;51.046;3.732;2023-08-06T11:33:26;16.15;;;2.65;;
23072;SDS011;67971;51.046;3.732;2023-08-06T11:35:52;20.20;;;3.00;;
23072;SDS011;67971;51.046;3.732;2023-08-06T11:38:21;12.80;;;2.73;;
23072;SDS011;67971;51.046;3.732;2023-08-06T11:40:50;13.70;;;2.70;;
23072;SDS011;67971;51.046;3.732;2023-08-06T11:43:17;14.70;;;2.95;;
23072;SDS011;67971;51.046;3.732;2023-08-06T11:45:45;17.73;;;3.20;;
23072;SDS011;67971;51.046;3.732;2023-08-06T11:48:11;14.25;;;2.17;;
23072;SDS011;67971;51.046;3.732;2023-08-06T11:50:40;16.30;;;3.42;;
23072;SDS011;67971;51.046;3.732;2023-08-06T11:53:06;11.05;;;2.70;;
23072;SDS011;67971;51.046;3.732;2023-08-06T11:55:32;6.30;;;1.80;;
23072;SDS011;67971;51.046;3.732;2023-08-06T11:57:58;8.20;;;3.00;;
23072;SDS011;67971;51.046;3.732;2023-08-06T12:00:28;14.02;;;2.15;;
23072;SDS011;67971;51.046;3.732;2023-08-06T12:02:54;9.67;;;2.13;;
23072;SDS011;67971;51.046;3.732;2023-08-06T12:05:22;11.17;;;2.43;;
23072;SDS011;67971;51.046;3.732;2023-08-06T12:07:52;12.57;;;2.00;;
23072;SDS011;67971;51.046;3.732;2023-08-06T12:10:20;9.60;;;2.08;;
23072;SDS011;67971;51.046;3.732;2023-08-06T12:12:46;9.02;;;1.88;;
23072;SDS011;67971;51.046;3.732;2023-08-06T12:15:13;10.45;;;2.58;;
23072;SDS011;67971;51.046;3.732;2023-08-06T12:17:39;11.90;;;2.67;;
23072;SDS011;67971;51.046;3.732;2023-08-06T12:20:05;9.02;;;2.03;;
23072;SDS011;67971;51.046;3.732;2023-08-06T12:22:32;18.63;;;2.50;;
23072;SDS011;67971;51.046;3.732;2023-08-06T12:25:02;13.40;;;1.92;;
23072;SDS011;67971;51.046;3.732;2023-08-06T12:27:29;14.80;;;2.42;;
23072;SDS011;67971;51.046;3.732;2023-08-06T12:29:54;10.47;;;2.37;;
23072;SDS011;67971;51.046;3.732;2023-08-06T12:32:20;15.27;;;2.93;;
23072;SDS011;67971;51.046;3.732;2023-08-06T12:34:47;16.67;;;2.47;;
23072;SDS011;67971;51.046;3.732;2023-08-06T12:37:12;12.25;;;2.95;;
23072;SDS011;67971;51.046;3.732;2023-08-06T12:39:38;8.52;;;2.22;;
23072;SDS011;67971;51.046;3.732;2023-08-06T12:42:04;8.00;;;2.47;;
23072;SDS011;67971;51.046;3.732;2023-08-06T12:44:30;12.05;;;2.85;;
23072;SDS011;67971;51.046;3.732;2023-08-06T12:46:56;11.55;;;2.42;;
23072;SDS011;67971;51.046;3.732;2023-08-06T12:49:22;10.35;;;2.35;;
23072;SDS011;67971;51.046;3.732;2023-08-06T12:51:50;9.15;;;2.38;;
23072;SDS011;67971;51.046;3.732;2023-08-06T12:54:16;10.15;;;2.80;;
23072;SDS011;67971;51.046;3.732;2023-08-06T12:56:43;10.23;;;3.45;;
23072;SDS011;67971;51.046;3.732;2023-08-06T12:59:09;10.18;;;2.25;;
23072;SDS011;67971;51.046;3.732;2023-08-06T13:01:35;17.30;;;2.90;;
23072;SDS011;67971;51.046;3.732;2023-08-06T13:04:02;10.48;;;3.33;;
23072;SDS011;67971;51.046;3.732;2023-08-06T13:06:27;14.48;;;3.03;;
23072;SDS011;67971;51.046;3.732;2023-08-06T13:08:53;9.32;;;2.50;;
23072;SDS011;67971;51.046;3.732;2023-08-06T13:11:19;13.07;;;2.25;;
23072;SDS011;67971;51.046;3.732;2023-08-06T13:13:44;9.27;;;2.60;;
23072;SDS011;67971;51.046;3.732;2023-08-06T13:16:10;6.03;;;1.98;;
23072;SDS011;67971;51.046;3.732;2023-08-06T13:18:36;6.43;;;2.40;;
23072;SDS011;67971;51.046;3.732;2023-08-06T13:21:01;9.85;;;2.30;;
23072;SDS011;67971;51.046;3.732;2023-08-06T13:23:27;14.40;;;2.67;;
23072;SDS011;67971;51.046;3.732;2023-08-06T13:25:53;13.90;;;2.28;;
23072;SDS011;67971;51.046;3.732;2023-08-06T13:28:18;11.33;;;2.27;;
23072;SDS011;67971;51.046;3.732;2023-08-06T13:30:45;10.23;;;1.80;;
23072;SDS011;67971;51.046;3.732;2023-08-06T13:33:11;11.13;;;2.37;;
23072;SDS011;67971;51.046;3.732;2023-08-06T13:35:37;10.40;;;2.20;;
23072;SDS011;67971;51.046;3.732;2023-08-06T13:38:03;7.03;;;2.00;;
23072;SDS011;67971;51.046;3.732;2023-08-06T13:40:29;9.70;;;2.30;;
23072;SDS011;67971;51.046;3.732;2023-08-06T13:42:57;12.37;;;2.30;;
23072;SDS011;67971;51.046;3.732;2023-08-06T13:45:23;13.20;;;2.23;;
23072;SDS011;67971;51.046;3.732;2023-08-06T13:47:48;12.67;;;2.30;;
23072;SDS011;67971;51.046;3.732;2023-08-06T13:50:14;14.07;;;2.60;;
23072;SDS011;67971;51.046;3.732;2023-08-06T13:52:40;12.43;;;3.00;;
23072;SDS011;67971;51.046;3.732;2023-08-06T13:55:06;9.02;;;2.03;;
23072;SDS011;67971;51.046;3.732;2023-08-06T13:57:32;13.85;;;2.78;;
23072;SDS011;67971;51.046;3.732;2023-08-06T13:59:59;9.75;;;2.30;;
23072;SDS011;67971;51.046;3.732;2023-08-06T14:02:25;10.82;;;2.67;;
23072;SDS011;67971;51.046;3.732;2023-08-06T14:04:52;14.07;;;2.88;;
23072;SDS011;67971;51.046;3.732;2023-08-06T14:07:18;11.18;;;2.55;;
23072;SDS011;67971;51.046;3.732;2023-08-06T14:09:44;12.15;;;3.05;;
23072;SDS011;67971;51.046;3.732;2023-08-06T14:12:12;9.02;;;2.33;;
23072;SDS011;67971;51.046;3.732;2023-08-06T14:14:37;12.27;;;2.42;;
23072;SDS011;67971;51.046;3.732;2023-08-06T14:17:03;7.25;;;2.10;;
23072;SDS011;67971;51.046;3.732;2023-08-06T14:19:29;10.38;;;2.47;;
23072;SDS011;67971;51.046;3.732;2023-08-06T14:21:54;11.63;;;2.63;;
23072;SDS011;67971;51.046;3.732;2023-08-06T14:24:20;9.18;;;2.30;;
23072;SDS011;67971;51.046;3.732;2023-08-06T14:26:46;12.65;;;2.20;;
23072;SDS011;67971;51.046;3.732;2023-08-06T14:29:12;15.30;;;2.88;;
23072;SDS011;67971;51.046;3.732;2023-08-06T14:31:38;8.82;;;2.58;;
23072;SDS011;67971;51.046;3.732;2023-08-06T14:34:04;10.50;;;2.05;;
23072;SDS011;67971;51.046;3.732;2023-08-06T14:36:30;11.73;;;2.60;;
23072;SDS011;67971;51.046;3.732;2023-08-06T14:38:56;6.22;;;2.10;;
23072;SDS011;67971;51.046;3.732;2023-08-06T14:41:21;8.65;;;2.20;;